createdAt,value
2022-12-25T00:00:02.716Z,21.4
2022-12-25T00:05:00.138Z,21.4
2022-12-25T00:10:01.006Z,21.3
2022-12-25T00:15:00.963Z,21.3
2022-12-25T00:20:01.398Z,21.3
2022-12-25T00:25:01.020Z,21.4
2022-12-25T00:30:01.052Z,21.3
2022-12-25T00:35:01.194Z,21.3
2022-12-25T00:40:01.007Z,21.3
2022-12-25T00:45:00.993Z,21.3
2022-12-25T00:50:00.215Z,21.3
2022-12-25T00:55:01.458Z,21.3
2022-12-25T01:00:01.022Z,21.3
2022-12-25T01:05:00.960Z,21.3
2022-12-25T01:10:01.016Z,21.3
2022-12-25T01:15:00.961Z,21.3
2022-12-25T01:20:02.448Z,21.2
2022-12-25T01:25:00.119Z,21.3
2022-12-25T01:30:01.018Z,21.2
2022-12-25T01:35:00.106Z,21.2
2022-12-25T01:40:02.983Z,21.2
2022-12-25T01:45:02.255Z,21.2
2022-12-25T01:50:02.431Z,21.2
2022-12-25T01:55:00.161Z,21.2
2022-12-25T02:00:01.286Z,21.2
2022-12-25T02:05:00.953Z,21.2
2022-12-25T02:10:01.271Z,21.2
2022-12-25T02:15:05.150Z,21.2
2022-12-25T02:20:00.919Z,21.2
2022-12-25T02:25:00.136Z,21.2
2022-12-25T02:30:02.914Z,21.1
2022-12-25T02:35:00.113Z,21.2
2022-12-25T02:40:01.113Z,21.2
2022-12-25T02:45:02.388Z,21.2
2022-12-25T02:50:00.220Z,21.2
2022-12-25T02:55:00.130Z,21.2
2022-12-25T03:00:01.317Z,21.2
2022-12-25T03:05:01.597Z,21.2
2022-12-25T03:10:01.498Z,21.2
2022-12-25T03:15:01.465Z,21.1
2022-12-25T03:20:01.283Z,21.2
2022-12-25T03:25:01.127Z,21.2
2022-12-25T03:30:01.354Z,21.2
2022-12-25T03:35:00.110Z,21.2
2022-12-25T03:40:02.355Z,21.2
2022-12-25T03:45:00.138Z,21.1
2022-12-25T03:50:00.961Z,21.1
2022-12-25T03:55:00.116Z,21.1
2022-12-25T04:00:01.114Z,21.2
2022-12-25T04:05:01.645Z,21.2
2022-12-25T04:10:01.047Z,21.2
2022-12-25T04:15:00.129Z,21.2
2022-12-25T04:20:01.559Z,21.2
2022-12-25T04:25:00.094Z,21.2
2022-12-25T04:30:03.175Z,21.2
2022-12-25T04:35:00.121Z,21.2
2022-12-25T04:40:01.060Z,21.2
2022-12-25T04:45:00.122Z,21.1
2022-12-25T04:50:01.057Z,21.2
2022-12-25T04:55:01.229Z,21.1
2022-12-25T05:00:01.267Z,21.1
2022-12-25T05:05:00.185Z,21.2
2022-12-25T05:10:01.289Z,21.2
2022-12-25T05:15:00.154Z,21.1
2022-12-25T05:20:01.338Z,21.1
2022-12-25T05:25:01.254Z,21.2
2022-12-25T05:30:01.046Z,21.1
2022-12-25T05:35:03.787Z,21.2
2022-12-25T05:40:00.193Z,21.2
2022-12-25T05:45:01.013Z,21.1
2022-12-25T05:50:00.181Z,21.1
2022-12-25T05:55:02.522Z,21.1
2022-12-25T06:00:01.241Z,21.1
2022-12-25T06:05:02.864Z,21.1
2022-12-25T06:10:00.181Z,21.1
2022-12-25T06:15:00.998Z,21.1
2022-12-25T06:20:01.006Z,21.1
2022-12-25T06:25:00.168Z,21.1
2022-12-25T06:30:00.991Z,21.1
2022-12-25T06:35:00.159Z,21.1
2022-12-25T06:40:01.220Z,21.1
2022-12-25T06:45:01.282Z,21.1
2022-12-25T06:50:01.284Z,21.1
2022-12-25T06:55:00.112Z,21.1
2022-12-25T07:00:01.292Z,21.1
2022-12-25T07:05:01.006Z,21.1
2022-12-25T07:10:00.198Z,21.1
2022-12-25T07:15:02.147Z,21.1
2022-12-25T07:20:01.457Z,21.1
2022-12-25T07:25:00.971Z,21.1
2022-12-25T07:30:02.574Z,21.0
2022-12-25T07:35:00.972Z,21.1
2022-12-25T07:40:02.616Z,21.1
2022-12-25T07:45:00.168Z,21.1
2022-12-25T07:50:01.289Z,21.1
2022-12-25T07:55:01.231Z,21.1
2022-12-25T08:00:01.191Z,21.1
2022-12-25T08:05:00.173Z,21.1
2022-12-25T08:10:01.061Z,21.1
2022-12-25T08:15:00.956Z,21.1
2022-12-25T08:20:00.987Z,21.1
2022-12-25T08:25:00.153Z,21.1
2022-12-25T08:30:00.148Z,21.1
2022-12-25T08:35:01.329Z,21.1
2022-12-25T08:40:01.012Z,21.1
2022-12-25T08:45:00.147Z,21.1
2022-12-25T08:50:00.166Z,21.1
2022-12-25T08:55:00.147Z,21.1
2022-12-25T09:00:01.025Z,21.1
2022-12-25T09:05:01.301Z,21.1
2022-12-25T09:10:01.018Z,21.1
2022-12-25T09:15:01.021Z,21.2
2022-12-25T09:20:00.135Z,21.2
2022-12-25T09:25:01.369Z,21.2
2022-12-25T09:30:01.582Z,21.1
2022-12-25T09:35:01.058Z,21.2
2022-12-25T09:40:00.780Z,21.1
2022-12-25T09:45:01.042Z,21.1
2022-12-25T09:50:00.159Z,21.1
2022-12-25T09:55:01.441Z,21.1
2022-12-25T10:00:00.970Z,21.2
2022-12-25T10:05:00.145Z,21.2
2022-12-25T10:10:01.267Z,21.3
2022-12-25T10:15:01.347Z,21.3
2022-12-25T10:20:01.461Z,21.3
2022-12-25T10:25:01.087Z,21.4
2022-12-25T10:30:01.022Z,21.4
2022-12-25T10:35:01.727Z,21.4
2022-12-25T10:40:01.278Z,21.4
2022-12-25T10:45:01.006Z,21.4
2022-12-25T10:50:00.958Z,21.5
2022-12-25T10:55:00.175Z,21.4
2022-12-25T11:00:01.404Z,21.5
2022-12-25T11:05:00.975Z,21.5
2022-12-25T11:10:05.002Z,21.5
2022-12-25T11:15:01.226Z,21.5
2022-12-25T11:20:00.966Z,21.5
2022-12-25T11:25:01.069Z,21.5
2022-12-25T11:30:01.065Z,21.5
2022-12-25T11:35:01.196Z,21.5
2022-12-25T11:40:01.977Z,21.5
2022-12-25T11:45:01.047Z,21.5
2022-12-25T11:50:01.375Z,21.5
2022-12-25T11:55:00.127Z,21.5
2022-12-25T12:00:01.032Z,21.6
2022-12-25T12:05:00.156Z,21.6
2022-12-25T12:10:00.155Z,21.6
2022-12-25T12:15:00.992Z,21.6
2022-12-25T12:20:00.193Z,21.7
2022-12-25T12:25:00.167Z,21.7
2022-12-25T12:30:01.088Z,21.7
2022-12-25T12:35:00.946Z,21.7
2022-12-25T12:40:00.989Z,21.7
2022-12-25T12:45:01.278Z,21.7
2022-12-25T12:50:01.834Z,21.7
2022-12-25T12:55:00.144Z,21.7
2022-12-25T13:00:08.374Z,21.7
2022-12-25T13:05:01.022Z,21.7
2022-12-25T13:10:01.502Z,21.7
2022-12-25T13:15:01.236Z,21.7
2022-12-25T13:20:01.366Z,21.7
2022-12-25T13:25:01.063Z,21.8
2022-12-25T13:30:01.311Z,21.7
2022-12-25T13:35:01.251Z,21.8
2022-12-25T13:40:00.239Z,21.8
2022-12-25T13:45:01.529Z,21.8
2022-12-25T13:50:01.149Z,21.8
2022-12-25T13:55:00.139Z,21.8
2022-12-25T14:00:01.059Z,21.8
2022-12-25T14:05:00.132Z,21.8
2022-12-25T14:10:01.279Z,21.8
2022-12-25T14:15:00.135Z,21.8
2022-12-25T14:20:07.731Z,21.8
2022-12-25T14:25:01.250Z,21.7
2022-12-25T14:30:00.993Z,21.8
2022-12-25T14:35:00.973Z,21.7
2022-12-25T14:40:01.088Z,21.8
2022-12-25T14:45:00.112Z,21.7
2022-12-25T14:50:01.001Z,21.8
2022-12-25T14:55:01.275Z,21.8
2022-12-25T15:00:01.018Z,21.8
2022-12-25T15:05:00.227Z,21.8
2022-12-25T15:10:28.930Z,21.8
2022-12-25T15:15:01.204Z,21.8
2022-12-25T15:20:01.029Z,21.8
2022-12-25T15:25:02.579Z,21.8
2022-12-25T15:30:09.974Z,21.8
2022-12-25T15:35:01.893Z,21.8
2022-12-25T15:40:02.140Z,21.7
2022-12-25T15:55:01.061Z,21.8
2022-12-25T16:00:02.982Z,21.8
2022-12-25T16:05:04.213Z,21.8
2022-12-25T16:10:01.305Z,21.8
2022-12-25T16:15:00.172Z,21.8
2022-12-25T16:20:01.256Z,21.8
2022-12-25T16:25:01.042Z,21.8
2022-12-25T16:30:00.982Z,21.7
2022-12-25T16:35:01.263Z,21.7
2022-12-25T16:40:01.055Z,21.7
2022-12-25T16:45:01.738Z,21.7
2022-12-25T16:50:01.039Z,21.6
2022-12-25T16:55:01.535Z,21.7
2022-12-25T17:00:01.069Z,21.6
2022-12-25T17:05:01.022Z,21.6
2022-12-25T17:10:01.308Z,21.6
2022-12-25T17:15:01.472Z,21.6
2022-12-25T17:20:01.223Z,21.5
2022-12-25T17:25:01.032Z,21.6
2022-12-25T17:30:01.223Z,21.5
2022-12-25T17:35:01.028Z,21.6
2022-12-25T17:40:01.649Z,21.6
2022-12-25T17:45:01.067Z,21.7
2022-12-25T17:50:01.067Z,21.7
2022-12-25T17:55:01.828Z,21.7
2022-12-25T18:00:00.176Z,21.7
2022-12-25T18:05:01.198Z,21.7
2022-12-25T18:10:01.143Z,21.7
2022-12-25T18:15:01.335Z,21.7
2022-12-25T18:20:01.102Z,21.7
2022-12-25T18:25:01.047Z,21.7
2022-12-25T18:30:01.301Z,21.7
2022-12-25T18:35:01.042Z,21.7
2022-12-25T18:40:01.557Z,21.7
2022-12-25T18:45:00.967Z,21.7
2022-12-25T18:50:01.276Z,21.7
2022-12-25T18:55:01.057Z,21.8
2022-12-25T19:00:00.181Z,21.8
2022-12-25T19:05:01.928Z,21.8
2022-12-25T19:10:02.511Z,21.8
2022-12-25T19:15:01.140Z,21.8
2022-12-25T19:20:02.190Z,21.8
2022-12-25T19:25:00.164Z,21.8
2022-12-25T19:30:01.677Z,21.8
2022-12-25T19:35:01.582Z,21.9
2022-12-25T19:40:01.228Z,21.6
2022-12-25T19:45:01.309Z,21.5
2022-12-25T19:50:03.266Z,21.2
2022-12-25T19:55:00.188Z,21.0
2022-12-25T20:00:01.562Z,21.0
2022-12-25T20:05:00.171Z,20.9
2022-12-25T20:10:02.955Z,20.9
2022-12-25T20:15:02.144Z,21.0
2022-12-25T20:20:01.093Z,21.0
2022-12-25T20:25:01.515Z,21.0
2022-12-25T20:30:02.017Z,21.0
2022-12-25T20:35:01.042Z,21.1
2022-12-25T20:40:01.074Z,21.1
2022-12-25T20:45:01.575Z,21.2
2022-12-25T20:50:01.100Z,21.2
2022-12-25T20:55:01.074Z,21.2
2022-12-25T21:00:02.334Z,21.3
2022-12-25T21:05:01.367Z,21.3
2022-12-25T21:10:01.165Z,21.3
2022-12-25T21:15:01.300Z,21.4
2022-12-25T21:20:01.332Z,21.4
2022-12-25T21:25:02.699Z,21.4
2022-12-25T21:30:14.590Z,21.5
2022-12-25T21:35:03.681Z,21.4
2022-12-25T21:40:00.469Z,21.4
2022-12-25T21:45:05.170Z,21.4
2022-12-25T21:50:01.066Z,21.5
2022-12-25T21:55:01.339Z,21.5
2022-12-25T22:05:01.332Z,21.5
2022-12-25T22:10:01.619Z,21.5
2022-12-25T22:15:01.343Z,21.5
2022-12-25T22:20:01.054Z,21.6
2022-12-25T22:25:01.564Z,21.6
2022-12-25T22:30:01.113Z,21.6
2022-12-25T22:35:02.492Z,21.5
2022-12-25T22:40:02.234Z,21.6
2022-12-25T22:45:01.341Z,21.6
2022-12-25T22:50:03.247Z,21.6
2022-12-25T22:55:02.568Z,21.6
2022-12-25T23:00:01.285Z,21.6
2022-12-25T23:05:01.686Z,21.6
2022-12-25T23:10:01.317Z,21.5
2022-12-25T23:15:00.955Z,21.6
2022-12-25T23:20:01.950Z,21.6
2022-12-25T23:25:02.018Z,21.7
2022-12-25T23:30:01.541Z,21.7
2022-12-25T23:35:01.085Z,21.7
2022-12-25T23:40:01.325Z,21.7
2022-12-25T23:45:01.251Z,21.7
2022-12-25T23:50:02.219Z,21.7
2022-12-25T23:55:02.414Z,21.8
